OIIS  Semnan Airport

Add Bookmark

Semnan, Iran

Status
Operational
Latitude Longitude
35° 35' 27" N 53° 29' 42" E
35.591099 53.495098
Local (DST + 5) UTC (GMT + 4)
Aug 28, 2014 07:34 Aug 28, 2014 03:04
Sunrise-Sunset Local UTC
Begin Civil Twilight 05:57 01:27
Sunrise 06:23 01:53
Sunset 07:30 15:00
End Civil Twilight 07:56 15:26

Current Weather

METAR Observed VFR
OIIS 280200Z 00000KT CAVOK 23/04 Q1015 Thu, Aug 28, 2014 @ 02:00 UTC
(1 Hour, 4 Minutes ago)
Visual Flight Rules
Wind Visibility Clouds Conditions
Calm 10 km or more
  • Clear skies
  • No significant weather
Temperatures Readings Precipitation
Current Temp 23°C (73°F)
Dewpoint 4°C (39°F)
Humidity 29%
Altimeter 29.97"Hg
Sea Level Pressure 1015mb
Field Elevation 3658.14'
None Recorded

Additional weather within a 185.2km radius of OIIS

Map ICAO Location
OINZ 119.3km N (347°)
OINB 146.5km N (329°)
OING 167.4km N (029°)

24 Hour Weather History

Loading
-

24 Hour Weather Graphs

Loading
-

CheckWX.com is intended as a tool to help pilots better visualize weather data. It is not intended as a substitute for an official weather briefing obtained from a Flight Service Station. CheckWX.com does not meet the FAA requirements for an official pre-flight weather briefing. Therefore, it's important that pilots still call and obtain an official FSS pre-flight weather briefing.